sensor_id;sensor_type;location;lat;lon;timestamp;temperature;humidity
17968;DHT22;9109;48.050;11.696;2022-11-20T04:48:10;6.10;99.90
17968;DHT22;9109;48.050;11.696;2022-11-20T04:51:12;6.10;99.90
17968;DHT22;9109;48.050;11.696;2022-11-20T04:54:14;6.10;99.90
17968;DHT22;9109;48.050;11.696;2022-11-20T04:57:16;6.10;99.90
17968;DHT22;9109;48.050;11.696;2022-11-20T05:00:18;6.10;99.90
17968;DHT22;9109;48.050;11.696;2022-11-20T05:03:22;6.10;99.90
17968;DHT22;9109;48.050;11.696;2022-11-20T05:06:24;6.10;99.90
17968;DHT22;9109;48.050;11.696;2022-11-20T05:09:26;6.00;99.90
17968;DHT22;9109;48.050;11.696;2022-11-20T05:12:27;6.00;99.90
17968;DHT22;9109;48.050;11.696;2022-11-20T05:15:32;6.00;99.90
17968;DHT22;9109;48.050;11.696;2022-11-20T05:18:36;6.00;99.90
17968;DHT22;9109;48.050;11.696;2022-11-20T05:21:38;6.00;99.90
17968;DHT22;9109;48.050;11.696;2022-11-20T05:24:40;6.00;99.90
17968;DHT22;9109;48.050;11.696;2022-11-20T05:27:42;6.00;99.90
17968;DHT22;9109;48.050;11.696;2022-11-20T05:30:44;6.00;99.90
17968;DHT22;9109;48.050;11.696;2022-11-20T05:33:50;6.10;99.90
17968;DHT22;9109;48.050;11.696;2022-11-20T05:36:57;6.00;99.90
17968;DHT22;9109;48.050;11.696;2022-11-20T05:40:02;6.00;99.90
17968;DHT22;9109;48.050;11.696;2022-11-20T05:43:11;6.00;99.90
17968;DHT22;9109;48.050;11.696;2022-11-20T05:46:20;6.00;99.90
17968;DHT22;9109;48.050;11.696;2022-11-20T05:49:24;6.00;99.90
17968;DHT22;9109;48.050;11.696;2022-11-20T05:52:28;6.00;99.90
17968;DHT22;9109;48.050;11.696;2022-11-20T05:55:37;6.00;99.90
17968;DHT22;9109;48.050;11.696;2022-11-20T05:58:41;6.00;99.90
17968;DHT22;9109;48.050;11.696;2022-11-20T06:01:43;5.90;99.90
17968;DHT22;9109;48.050;11.696;2022-11-20T06:04:50;5.90;99.90
17968;DHT22;9109;48.050;11.696;2022-11-20T06:07:52;5.90;99.90
17968;DHT22;9109;48.050;11.696;2022-11-20T06:11:02;5.90;99.90
17968;DHT22;9109;48.050;11.696;2022-11-20T06:14:09;5.90;99.90
17968;DHT22;9109;48.050;11.696;2022-11-20T06:17:11;5.90;99.90
17968;DHT22;9109;48.050;11.696;2022-11-20T06:20:15;5.90;99.90
17968;DHT22;9109;48.050;11.696;2022-11-20T06:23:30;5.90;99.90
17968;DHT22;9109;48.050;11.696;2022-11-20T06:26:32;5.90;99.90
17968;DHT22;9109;48.050;11.696;2022-11-20T06:29:37;5.90;99.90
17968;DHT22;9109;48.050;11.696;2022-11-20T06:32:43;5.90;99.90
17968;DHT22;9109;48.050;11.696;2022-11-20T06:35:49;5.80;99.90
17968;DHT22;9109;48.050;11.696;2022-11-20T06:38:53;5.80;99.90
17968;DHT22;9109;48.050;11.696;2022-11-20T06:42:00;5.70;99.90
17968;DHT22;9109;48.050;11.696;2022-11-20T06:45:09;5.70;99.90
17968;DHT22;9109;48.050;11.696;2022-11-20T06:48:19;5.60;99.90
17968;DHT22;9109;48.050;11.696;2022-11-20T06:51:24;5.50;99.90
17968;DHT22;9109;48.050;11.696;2022-11-20T06:54:42;5.50;99.90
17968;DHT22;9109;48.050;11.696;2022-11-20T07:01:33;5.40;99.90
17968;DHT22;9109;48.050;11.696;2022-11-20T07:04:43;5.40;99.90
17968;DHT22;9109;48.050;11.696;2022-11-20T07:07:55;5.40;99.90
17968;DHT22;9109;48.050;11.696;2022-11-20T07:11:04;5.40;99.90
17968;DHT22;9109;48.050;11.696;2022-11-20T07:14:10;5.40;99.90
17968;DHT22;9109;48.050;11.696;2022-11-20T07:17:26;5.40;99.90
17968;DHT22;9109;48.050;11.696;2022-11-20T07:20:29;5.50;99.90
17968;DHT22;9109;48.050;11.696;2022-11-20T07:23:47;5.60;99.90
17968;DHT22;9109;48.050;11.696;2022-11-20T07:27:03;5.70;99.90
17968;DHT22;9109;48.050;11.696;2022-11-20T07:30:18;5.70;99.90
17968;DHT22;9109;48.050;11.696;2022-11-20T07:33:34;5.70;99.90
17968;DHT22;9109;48.050;11.696;2022-11-20T07:36:39;5.90;99.90
17968;DHT22;9109;48.050;11.696;2022-11-20T07:39:51;5.90;99.90
17968;DHT22;9109;48.050;11.696;2022-11-20T07:42:55;5.90;99.90
17968;DHT22;9109;48.050;11.696;2022-11-20T07:45:59;6.00;99.90
17968;DHT22;9109;48.050;11.696;2022-11-20T07:49:12;5.90;99.90
17968;DHT22;9109;48.050;11.696;2022-11-20T07:52:14;5.90;99.90
17968;DHT22;9109;48.050;11.696;2022-11-20T07:55:23;5.90;99.90
17968;DHT22;9109;48.050;11.696;2022-11-20T07:58:33;6.00;99.90
17968;DHT22;9109;48.050;11.696;2022-11-20T08:01:42;6.00;99.90
17968;DHT22;9109;48.050;11.696;2022-11-20T08:04:49;6.00;99.90
17968;DHT22;9109;48.050;11.696;2022-11-20T08:08:01;6.10;99.90
17968;DHT22;9109;48.050;11.696;2022-11-20T08:11:11;6.10;99.90
17968;DHT22;9109;48.050;11.696;2022-11-20T08:14:30;6.10;99.90
17968;DHT22;9109;48.050;11.696;2022-11-20T08:17:42;6.10;99.90
17968;DHT22;9109;48.050;11.696;2022-11-20T08:20:50;6.10;99.90
17968;DHT22;9109;48.050;11.696;2022-11-20T08:24:05;6.10;99.90
17968;DHT22;9109;48.050;11.696;2022-11-20T08:27:11;6.10;99.90
17968;DHT22;9109;48.050;11.696;2022-11-20T08:30:22;6.10;99.90
17968;DHT22;9109;48.050;11.696;2022-11-20T08:33:26;6.10;99.90
17968;DHT22;9109;48.050;11.696;2022-11-20T08:36:28;6.10;99.90
17968;DHT22;9109;48.050;11.696;2022-11-20T08:39:36;6.10;99.90
17968;DHT22;9109;48.050;11.696;2022-11-20T08:42:47;6.10;99.90
17968;DHT22;9109;48.050;11.696;2022-11-20T08:45:51;6.20;99.90
17968;DHT22;9109;48.050;11.696;2022-11-20T08:48:59;6.20;99.90
17968;DHT22;9109;48.050;11.696;2022-11-20T08:52:07;6.30;99.90
17968;DHT22;9109;48.050;11.696;2022-11-20T08:55:10;6.30;99.90
17968;DHT22;9109;48.050;11.696;2022-11-20T08:58:15;6.40;99.90
17968;DHT22;9109;48.050;11.696;2022-11-20T09:01:21;6.40;99.90
17968;DHT22;9109;48.050;11.696;2022-11-20T09:04:25;6.40;99.90
17968;DHT22;9109;48.050;11.696;2022-11-20T09:07:32;6.40;99.90
17968;DHT22;9109;48.050;11.696;2022-11-20T09:10:55;6.60;99.90
17968;DHT22;9109;48.050;11.696;2022-11-20T09:14:10;6.60;99.90
17968;DHT22;9109;48.050;11.696;2022-11-20T09:17:25;6.60;99.90
17968;DHT22;9109;48.050;11.696;2022-11-20T09:20:35;6.70;99.90
17968;DHT22;9109;48.050;11.696;2022-11-20T09:23:40;6.70;99.90
17968;DHT22;9109;48.050;11.696;2022-11-20T09:26:49;6.70;99.90
17968;DHT22;9109;48.050;11.696;2022-11-20T09:30:04;6.60;99.90
17968;DHT22;9109;48.050;11.696;2022-11-20T09:33:06;6.70;99.90
17968;DHT22;9109;48.050;11.696;2022-11-20T09:36:17;6.70;99.90
17968;DHT22;9109;48.050;11.696;2022-11-20T09:39:36;6.80;99.90
17968;DHT22;9109;48.050;11.696;2022-11-20T09:42:43;6.80;99.90
17968;DHT22;9109;48.050;11.696;2022-11-20T09:46:07;6.80;99.90
17968;DHT22;9109;48.050;11.696;2022-11-20T09:49:24;6.90;99.90
17968;DHT22;9109;48.050;11.696;2022-11-20T09:52:37;6.90;99.90
17968;DHT22;9109;48.050;11.696;2022-11-20T09:55:42;7.00;99.90
17968;DHT22;9109;48.050;11.696;2022-11-20T09:58:53;7.00;99.90
17968;DHT22;9109;48.050;11.696;2022-11-20T10:02:19;7.10;99.90
17968;DHT22;9109;48.050;11.696;2022-11-20T10:05:35;7.20;99.90
17968;DHT22;9109;48.050;11.696;2022-11-20T10:08:41;7.20;99.90
17968;DHT22;9109;48.050;11.696;2022-11-20T10:11:58;7.20;99.90
17968;DHT22;9109;48.050;11.696;2022-11-20T10:15:12;7.20;99.90
17968;DHT22;9109;48.050;11.696;2022-11-20T10:18:32;7.20;99.90
17968;DHT22;9109;48.050;11.696;2022-11-20T10:21:57;7.30;99.90
17968;DHT22;9109;48.050;11.696;2022-11-20T10:25:06;7.30;99.90
17968;DHT22;9109;48.050;11.696;2022-11-20T10:28:33;7.40;99.90
17968;DHT22;9109;48.050;11.696;2022-11-20T10:31:41;7.50;99.90
17968;DHT22;9109;48.050;11.696;2022-11-20T10:34:51;7.60;99.90
17968;DHT22;9109;48.050;11.696;2022-11-20T10:37:58;7.70;99.90
17968;DHT22;9109;48.050;11.696;2022-11-20T10:41:02;7.80;99.90
17968;DHT22;9109;48.050;11.696;2022-11-20T10:44:20;7.90;99.90
17968;DHT22;9109;48.050;11.696;2022-11-20T10:47:37;8.10;99.90
17968;DHT22;9109;48.050;11.696;2022-11-20T10:50:50;8.10;99.90
17968;DHT22;9109;48.050;11.696;2022-11-20T10:53:58;8.10;99.90
17968;DHT22;9109;48.050;11.696;2022-11-20T10:57:29;8.10;99.90
17968;DHT22;9109;48.050;11.696;2022-11-20T11:00:35;8.10;99.90
17968;DHT22;9109;48.050;11.696;2022-11-20T11:03:46;8.10;99.90
17968;DHT22;9109;48.050;11.696;2022-11-20T11:07:08;8.00;99.90
17968;DHT22;9109;48.050;11.696;2022-11-20T11:10:17;8.00;99.90
17968;DHT22;9109;48.050;11.696;2022-11-20T11:13:21;8.00;99.90
17968;DHT22;9109;48.050;11.696;2022-11-20T11:16:26;8.00;99.90
17968;DHT22;9109;48.050;11.696;2022-11-20T11:19:35;8.00;99.90
17968;DHT22;9109;48.050;11.696;2022-11-20T11:22:44;7.90;99.90
17968;DHT22;9109;48.050;11.696;2022-11-20T11:25:56;7.90;99.90
17968;DHT22;9109;48.050;11.696;2022-11-20T11:29:01;7.80;99.90
17968;DHT22;9109;48.050;11.696;2022-11-20T11:32:05;7.80;99.90
17968;DHT22;9109;48.050;11.696;2022-11-20T11:35:22;7.70;99.90
17968;DHT22;9109;48.050;11.696;2022-11-20T11:38:37;7.70;99.90
17968;DHT22;9109;48.050;11.696;2022-11-20T11:41:40;7.70;99.90
17968;DHT22;9109;48.050;11.696;2022-11-20T11:44:45;7.70;99.90
17968;DHT22;9109;48.050;11.696;2022-11-20T11:48:08;7.70;99.90
17968;DHT22;9109;48.050;11.696;2022-11-20T11:51:10;7.80;99.90
17968;DHT22;9109;48.050;11.696;2022-11-20T11:54:17;7.70;99.90
17968;DHT22;9109;48.050;11.696;2022-11-20T11:57:26;7.70;99.90
17968;DHT22;9109;48.050;11.696;2022-11-20T12:00:30;7.80;99.90
17968;DHT22;9109;48.050;11.696;2022-11-20T12:03:36;7.90;99.90
17968;DHT22;9109;48.050;11.696;2022-11-20T12:06:40;8.10;99.90
17968;DHT22;9109;48.050;11.696;2022-11-20T12:09:49;8.20;99.90
17968;DHT22;9109;48.050;11.696;2022-11-20T12:13:04;8.20;99.90
17968;DHT22;9109;48.050;11.696;2022-11-20T12:16:12;8.40;99.90
17968;DHT22;9109;48.050;11.696;2022-11-20T12:19:14;8.50;99.90
17968;DHT22;9109;48.050;11.696;2022-11-20T12:22:23;8.50;99.60
17968;DHT22;9109;48.050;11.696;2022-11-20T12:25:30;8.60;99.20
17968;DHT22;9109;48.050;11.696;2022-11-20T12:28:44;8.50;99.40
17968;DHT22;9109;48.050;11.696;2022-11-20T12:32:04;8.50;99.20
17968;DHT22;9109;48.050;11.696;2022-11-20T12:35:20;8.50;99.20
17968;DHT22;9109;48.050;11.696;2022-11-20T12:38:56;8.50;99.30
17968;DHT22;9109;48.050;11.696;2022-11-20T12:45:57;7.90;99.90
17968;DHT22;9109;48.050;11.696;2022-11-20T12:49:13;7.80;99.90
17968;DHT22;9109;48.050;11.696;2022-11-20T12:52:37;7.70;99.90
17968;DHT22;9109;48.050;11.696;2022-11-20T12:55:49;7.60;99.90
17968;DHT22;9109;48.050;11.696;2022-11-20T12:59:02;7.50;99.90
17968;DHT22;9109;48.050;11.696;2022-11-20T13:02:26;7.50;99.90
17968;DHT22;9109;48.050;11.696;2022-11-20T13:05:37;7.50;99.90
17968;DHT22;9109;48.050;11.696;2022-11-20T13:08:40;7.30;99.90
17968;DHT22;9109;48.050;11.696;2022-11-20T13:11:47;7.30;99.90
17968;DHT22;9109;48.050;11.696;2022-11-20T13:14:55;7.30;99.90
17968;DHT22;9109;48.050;11.696;2022-11-20T13:18:01;7.30;99.90
17968;DHT22;9109;48.050;11.696;2022-11-20T13:21:17;7.30;99.90
17968;DHT22;9109;48.050;11.696;2022-11-20T13:24:24;7.20;99.90
17968;DHT22;9109;48.050;11.696;2022-11-20T13:27:28;7.10;99.90
17968;DHT22;9109;48.050;11.696;2022-11-20T13:30:33;7.10;99.90
17968;DHT22;9109;48.050;11.696;2022-11-20T13:33:39;7.10;99.90
17968;DHT22;9109;48.050;11.696;2022-11-20T13:40:51;7.10;99.90
17968;DHT22;9109;48.050;11.696;2022-11-20T13:44:13;7.00;99.90
17968;DHT22;9109;48.050;11.696;2022-11-20T13:49:05;7.00;99.90
17968;DHT22;9109;48.050;11.696;2022-11-20T13:52:29;7.00;99.90
17968;DHT22;9109;48.050;11.696;2022-11-20T13:55:39;7.00;99.90
17968;DHT22;9109;48.050;11.696;2022-11-20T13:58:53;7.00;99.90
17968;DHT22;9109;48.050;11.696;2022-11-20T14:01:57;6.90;99.90
17968;DHT22;9109;48.050;11.696;2022-11-20T14:05:02;6.90;99.90
17968;DHT22;9109;48.050;11.696;2022-11-20T14:08:06;6.90;99.90
17968;DHT22;9109;48.050;11.696;2022-11-20T14:11:19;6.90;99.90
17968;DHT22;9109;48.050;11.696;2022-11-20T14:14:22;6.90;99.90
17968;DHT22;9109;48.050;11.696;2022-11-20T14:17:30;7.00;99.90
17968;DHT22;9109;48.050;11.696;2022-11-20T14:20:34;7.00;99.90
17968;DHT22;9109;48.050;11.696;2022-11-20T14:23:36;6.90;99.90
17968;DHT22;9109;48.050;11.696;2022-11-20T14:26:42;6.90;99.90
17968;DHT22;9109;48.050;11.696;2022-11-20T14:29:47;7.00;99.90
17968;DHT22;9109;48.050;11.696;2022-11-20T14:32:51;7.00;99.90
17968;DHT22;9109;48.050;11.696;2022-11-20T14:35:57;7.00;99.90
17968;DHT22;9109;48.050;11.696;2022-11-20T14:38:59;7.10;99.90
17968;DHT22;9109;48.050;11.696;2022-11-20T14:42:03;7.00;99.90
17968;DHT22;9109;48.050;11.696;2022-11-20T14:45:07;7.00;99.90
17968;DHT22;9109;48.050;11.696;2022-11-20T14:48:09;7.00;99.90
17968;DHT22;9109;48.050;11.696;2022-11-20T14:51:24;7.00;99.90
17968;DHT22;9109;48.050;11.696;2022-11-20T14:54:27;7.10;99.90
17968;DHT22;9109;48.050;11.696;2022-11-20T14:57:35;7.00;99.90
17968;DHT22;9109;48.050;11.696;2022-11-20T15:00:37;7.00;99.90
17968;DHT22;9109;48.050;11.696;2022-11-20T15:03:40;6.90;99.90
17968;DHT22;9109;48.050;11.696;2022-11-20T15:06:53;6.80;99.90
17968;DHT22;9109;48.050;11.696;2022-11-20T15:10:05;6.90;99.90
17968;DHT22;9109;48.050;11.696;2022-11-20T15:13:12;6.80;99.90
17968;DHT22;9109;48.050;11.696;2022-11-20T15:16:17;6.80;99.90
17968;DHT22;9109;48.050;11.696;2022-11-20T15:19:21;6.80;99.90
17968;DHT22;9109;48.050;11.696;2022-11-20T15:22:25;6.80;99.90
17968;DHT22;9109;48.050;11.696;2022-11-20T15:25:27;6.80;99.90
17968;DHT22;9109;48.050;11.696;2022-11-20T15:28:30;6.80;99.90
17968;DHT22;9109;48.050;11.696;2022-11-20T15:31:33;6.80;99.90
17968;DHT22;9109;48.050;11.696;2022-11-20T15:34:35;6.70;99.90
17968;DHT22;9109;48.050;11.696;2022-11-20T15:37:39;6.70;99.90
17968;DHT22;9109;48.050;11.696;2022-11-20T15:40:41;6.70;99.90
17968;DHT22;9109;48.050;11.696;2022-11-20T15:43:43;6.70;99.90
17968;DHT22;9109;48.050;11.696;2022-11-20T15:46:45;6.70;99.90
17968;DHT22;9109;48.050;11.696;2022-11-20T15:49:47;6.80;99.90
17968;DHT22;9109;48.050;11.696;2022-11-20T15:52:50;6.70;99.90
17968;DHT22;9109;48.050;11.696;2022-11-20T15:55:52;6.70;99.90
17968;DHT22;9109;48.050;11.696;2022-11-20T15:58:54;6.70;99.90
17968;DHT22;9109;48.050;11.696;2022-11-20T16:01:56;6.70;99.90
17968;DHT22;9109;48.050;11.696;2022-11-20T16:04:58;6.70;99.90
17968;DHT22;9109;48.050;11.696;2022-11-20T16:08:01;6.60;99.90
17968;DHT22;9109;48.050;11.696;2022-11-20T16:11:04;6.60;99.90
17968;DHT22;9109;48.050;11.696;2022-11-20T16:14:06;6.60;99.90
17968;DHT22;9109;48.050;11.696;2022-11-20T16:17:25;6.50;99.90
17968;DHT22;9109;48.050;11.696;2022-11-20T16:20:43;6.40;99.90
17968;DHT22;9109;48.050;11.696;2022-11-20T16:23:47;6.40;99.90
17968;DHT22;9109;48.050;11.696;2022-11-20T16:26:49;6.40;99.90
17968;DHT22;9109;48.050;11.696;2022-11-20T16:29:50;6.40;99.90
17968;DHT22;9109;48.050;11.696;2022-11-20T16:32:52;6.40;99.90
17968;DHT22;9109;48.050;11.696;2022-11-20T16:35:55;6.40;99.90
17968;DHT22;9109;48.050;11.696;2022-11-20T16:39:01;6.30;99.90
17968;DHT22;9109;48.050;11.696;2022-11-20T16:42:05;6.30;99.90
17968;DHT22;9109;48.050;11.696;2022-11-20T16:45:08;6.20;99.90
17968;DHT22;9109;48.050;11.696;2022-11-20T16:48:14;6.20;99.90
17968;DHT22;9109;48.050;11.696;2022-11-20T16:51:16;6.20;99.90
17968;DHT22;9109;48.050;11.696;2022-11-20T16:54:20;6.10;99.90
17968;DHT22;9109;48.050;11.696;2022-11-20T16:57:22;6.00;99.90
17968;DHT22;9109;48.050;11.696;2022-11-20T17:00:24;6.00;99.90
17968;DHT22;9109;48.050;11.696;2022-11-20T17:03:26;6.00;99.90
17968;DHT22;9109;48.050;11.696;2022-11-20T17:06:29;6.10;99.90
17968;DHT22;9109;48.050;11.696;2022-11-20T17:09:33;6.00;99.90
17968;DHT22;9109;48.050;11.696;2022-11-20T17:12:35;5.90;99.90
17968;DHT22;9109;48.050;11.696;2022-11-20T17:15:37;5.90;99.90
17968;DHT22;9109;48.050;11.696;2022-11-20T17:18:39;5.80;99.90
17968;DHT22;9109;48.050;11.696;2022-11-20T17:21:41;5.80;99.90
17968;DHT22;9109;48.050;11.696;2022-11-20T17:24:44;5.80;99.90
17968;DHT22;9109;48.050;11.696;2022-11-20T17:27:46;5.70;99.90
17968;DHT22;9109;48.050;11.696;2022-11-20T17:30:48;5.60;99.90
17968;DHT22;9109;48.050;11.696;2022-11-20T17:33:50;5.60;99.90
17968;DHT22;9109;48.050;11.696;2022-11-20T17:36:52;5.60;99.90
17968;DHT22;9109;48.050;11.696;2022-11-20T17:39:56;5.50;99.90
17968;DHT22;9109;48.050;11.696;2022-11-20T17:42:58;5.40;99.90
17968;DHT22;9109;48.050;11.696;2022-11-20T17:46:00;5.30;99.90
17968;DHT22;9109;48.050;11.696;2022-11-20T17:49:02;5.30;99.90
17968;DHT22;9109;48.050;11.696;2022-11-20T17:52:04;5.20;99.90
17968;DHT22;9109;48.050;11.696;2022-11-20T17:55:08;5.30;99.90
17968;DHT22;9109;48.050;11.696;2022-11-20T17:58:10;5.40;99.90
17968;DHT22;9109;48.050;11.696;2022-11-20T18:01:11;5.30;99.90
17968;DHT22;9109;48.050;11.696;2022-11-20T18:04:13;5.20;99.90
17968;DHT22;9109;48.050;11.696;2022-11-20T18:07:16;5.10;99.90
17968;DHT22;9109;48.050;11.696;2022-11-20T18:10:19;5.00;99.90
17968;DHT22;9109;48.050;11.696;2022-11-20T18:13:21;5.00;99.90
17968;DHT22;9109;48.050;11.696;2022-11-20T18:16:45;5.00;99.90
17968;DHT22;9109;48.050;11.696;2022-11-20T18:19:51;5.00;99.90
17968;DHT22;9109;48.050;11.696;2022-11-20T18:22:53;5.00;99.90
17968;DHT22;9109;48.050;11.696;2022-11-20T18:26:00;5.00;99.90
17968;DHT22;9109;48.050;11.696;2022-11-20T18:29:02;4.90;99.90
17968;DHT22;9109;48.050;11.696;2022-11-20T18:32:04;4.90;99.90
17968;DHT22;9109;48.050;11.696;2022-11-20T18:35:07;4.90;99.90
17968;DHT22;9109;48.050;11.696;2022-11-20T18:38:09;4.90;99.90
17968;DHT22;9109;48.050;11.696;2022-11-20T18:41:13;4.90;99.90
17968;DHT22;9109;48.050;11.696;2022-11-20T18:44:31;4.90;99.90
17968;DHT22;9109;48.050;11.696;2022-11-20T18:47:51;4.80;99.90
17968;DHT22;9109;48.050;11.696;2022-11-20T18:50:53;4.80;99.90
17968;DHT22;9109;48.050;11.696;2022-11-20T18:53:55;4.70;99.90
17968;DHT22;9109;48.050;11.696;2022-11-20T18:56:59;4.70;99.90
17968;DHT22;9109;48.050;11.696;2022-11-20T19:00:02;4.70;99.90
17968;DHT22;9109;48.050;11.696;2022-11-20T19:03:04;4.60;99.90
17968;DHT22;9109;48.050;11.696;2022-11-20T19:06:11;4.50;99.90
17968;DHT22;9109;48.050;11.696;2022-11-20T19:09:13;4.50;99.90
17968;DHT22;9109;48.050;11.696;2022-11-20T19:12:17;4.50;99.90
17968;DHT22;9109;48.050;11.696;2022-11-20T19:15:19;4.50;99.90
17968;DHT22;9109;48.050;11.696;2022-11-20T19:18:21;4.50;99.90
17968;DHT22;9109;48.050;11.696;2022-11-20T19:21:23;4.60;99.90
17968;DHT22;9109;48.050;11.696;2022-11-20T19:24:25;4.60;99.90
17968;DHT22;9109;48.050;11.696;2022-11-20T19:27:29;4.60;99.90
17968;DHT22;9109;48.050;11.696;2022-11-20T19:30:32;4.60;99.90
17968;DHT22;9109;48.050;11.696;2022-11-20T19:33:34;4.60;99.90
17968;DHT22;9109;48.050;11.696;2022-11-20T19:36:37;4.50;99.90
17968;DHT22;9109;48.050;11.696;2022-11-20T19:39:40;4.40;99.90
17968;DHT22;9109;48.050;11.696;2022-11-20T19:42:43;4.40;99.90
17968;DHT22;9109;48.050;11.696;2022-11-20T19:45:45;4.30;99.90
17968;DHT22;9109;48.050;11.696;2022-11-20T19:48:47;4.30;99.90
17968;DHT22;9109;48.050;11.696;2022-11-20T19:51:49;4.30;99.90
17968;DHT22;9109;48.050;11.696;2022-11-20T19:54:51;4.20;99.90
17968;DHT22;9109;48.050;11.696;2022-11-20T19:57:55;4.20;99.90
17968;DHT22;9109;48.050;11.696;2022-11-20T20:01:03;4.30;99.90
17968;DHT22;9109;48.050;11.696;2022-11-20T20:04:06;4.30;99.90
17968;DHT22;9109;48.050;11.696;2022-11-20T20:07:08;4.40;99.90
17968;DHT22;9109;48.050;11.696;2022-11-20T20:10:09;4.30;99.90
17968;DHT22;9109;48.050;11.696;2022-11-20T20:13:13;4.20;99.90
17968;DHT22;9109;48.050;11.696;2022-11-20T20:16:16;4.20;99.90
17968;DHT22;9109;48.050;11.696;2022-11-20T20:19:19;4.20;99.90
17968;DHT22;9109;48.050;11.696;2022-11-20T20:22:21;4.30;99.90
17968;DHT22;9109;48.050;11.696;2022-11-20T20:25:23;4.30;99.90
17968;DHT22;9109;48.050;11.696;2022-11-20T20:28:28;4.30;99.90
17968;DHT22;9109;48.050;11.696;2022-11-20T20:31:44;4.40;99.90
17968;DHT22;9109;48.050;11.696;2022-11-20T20:35:27;4.40;99.90
17968;DHT22;9109;48.050;11.696;2022-11-20T20:38:44;4.30;99.90
17968;DHT22;9109;48.050;11.696;2022-11-20T20:41:46;4.30;99.90
17968;DHT22;9109;48.050;11.696;2022-11-20T20:44:49;4.30;99.90
17968;DHT22;9109;48.050;11.696;2022-11-20T20:48:07;4.30;99.90
17968;DHT22;9109;48.050;11.696;2022-11-20T20:51:16;4.30;99.90
17968;DHT22;9109;48.050;11.696;2022-11-20T20:54:32;4.30;99.90
17968;DHT22;9109;48.050;11.696;2022-11-20T20:57:37;4.30;99.90
17968;DHT22;9109;48.050;11.696;2022-11-20T21:00:41;4.30;99.90
17968;DHT22;9109;48.050;11.696;2022-11-20T21:03:43;4.40;99.90
17968;DHT22;9109;48.050;11.696;2022-11-20T21:06:45;4.40;99.90
17968;DHT22;9109;48.050;11.696;2022-11-20T21:10:00;4.40;99.90
17968;DHT22;9109;48.050;11.696;2022-11-20T21:13:02;4.40;99.90
17968;DHT22;9109;48.050;11.696;2022-11-20T21:16:14;4.40;99.90
17968;DHT22;9109;48.050;11.696;2022-11-20T21:19:25;4.50;99.90
17968;DHT22;9109;48.050;11.696;2022-11-20T21:22:28;4.50;99.90
17968;DHT22;9109;48.050;11.696;2022-11-20T21:25:28;4.50;99.90
17968;DHT22;9109;48.050;11.696;2022-11-20T21:28:31;4.50;99.90
17968;DHT22;9109;48.050;11.696;2022-11-20T21:35:25;4.50;99.90
17968;DHT22;9109;48.050;11.696;2022-11-20T21:42:31;4.50;99.90
17968;DHT22;9109;48.050;11.696;2022-11-20T21:46:06;4.50;99.90
17968;DHT22;9109;48.050;11.696;2022-11-20T21:52:59;4.70;99.90
17968;DHT22;9109;48.050;11.696;2022-11-20T21:56:21;4.90;99.90
17968;DHT22;9109;48.050;11.696;2022-11-20T21:59:45;4.90;99.90
17968;DHT22;9109;48.050;11.696;2022-11-20T22:02:54;4.90;99.90
17968;DHT22;9109;48.050;11.696;2022-11-20T22:05:56;4.80;99.90
17968;DHT22;9109;48.050;11.696;2022-11-20T22:09:13;4.80;99.90
17968;DHT22;9109;48.050;11.696;2022-11-20T22:12:17;4.80;99.90
17968;DHT22;9109;48.050;11.696;2022-11-20T22:15:19;4.70;99.90
17968;DHT22;9109;48.050;11.696;2022-11-20T22:18:29;4.60;99.90
17968;DHT22;9109;48.050;11.696;2022-11-20T22:21:45;4.70;99.90
17968;DHT22;9109;48.050;11.696;2022-11-20T22:25:01;4.50;99.90
17968;DHT22;9109;48.050;11.696;2022-11-20T22:28:19;4.60;99.90
17968;DHT22;9109;48.050;11.696;2022-11-20T22:31:38;4.60;99.90
17968;DHT22;9109;48.050;11.696;2022-11-20T22:34:40;4.60;99.90
17968;DHT22;9109;48.050;11.696;2022-11-20T22:37:49;4.70;99.90
17968;DHT22;9109;48.050;11.696;2022-11-20T22:41:04;4.80;99.90
17968;DHT22;9109;48.050;11.696;2022-11-20T22:44:24;4.90;99.90
17968;DHT22;9109;48.050;11.696;2022-11-20T22:47:40;4.90;99.90
17968;DHT22;9109;48.050;11.696;2022-11-20T22:51:08;4.90;99.90
17968;DHT22;9109;48.050;11.696;2022-11-20T22:54:24;4.80;99.90
17968;DHT22;9109;48.050;11.696;2022-11-20T22:57:28;4.80;99.90
17968;DHT22;9109;48.050;11.696;2022-11-20T23:00:40;4.80;99.90
17968;DHT22;9109;48.050;11.696;2022-11-20T23:03:57;4.70;99.90
17968;DHT22;9109;48.050;11.696;2022-11-20T23:06:59;4.60;99.90
17968;DHT22;9109;48.050;11.696;2022-11-20T23:10:01;4.50;99.90
17968;DHT22;9109;48.050;11.696;2022-11-20T23:13:04;4.50;99.90
17968;DHT22;9109;48.050;11.696;2022-11-20T23:16:08;4.50;99.90
17968;DHT22;9109;48.050;11.696;2022-11-20T23:19:12;4.40;99.90
17968;DHT22;9109;48.050;11.696;2022-11-20T23:22:17;4.50;99.90
17968;DHT22;9109;48.050;11.696;2022-11-20T23:25:39;4.50;99.90
17968;DHT22;9109;48.050;11.696;2022-11-20T23:28:43;4.60;99.90
17968;DHT22;9109;48.050;11.696;2022-11-20T23:31:45;4.60;99.90
17968;DHT22;9109;48.050;11.696;2022-11-20T23:34:49;4.40;99.90
17968;DHT22;9109;48.050;11.696;2022-11-20T23:37:52;4.30;99.90
17968;DHT22;9109;48.050;11.696;2022-11-20T23:40:56;4.40;99.90
17968;DHT22;9109;48.050;11.696;2022-11-20T23:44:07;4.40;99.90
17968;DHT22;9109;48.050;11.696;2022-11-20T23:47:30;4.30;99.90
17968;DHT22;9109;48.050;11.696;2022-11-20T23:50:42;4.30;99.90
17968;DHT22;9109;48.050;11.696;2022-11-20T23:53:47;4.30;99.90
17968;DHT22;9109;48.050;11.696;2022-11-20T23:56:57;4.20;99.90
